West Leroy, Pennsylvania
Current Conditions -  °F | °C
As of 9:15 AM on Monday 22 Dec 2014 (Local Time) from KN38 Reporting Station
Overcast Overcast  
Wind Chill: 15°   Ceiling: 700
Heat Index: 25°   Visibility: 10mi
Dew Point: 23°   Wind: 9mph
Humidity: 93%   Direction: 180°S
Pressure: 30.21"   Gusts: NA
Location:  41.669°N, 76.8999°W
Report Text: KN38 221415Z AUTO 18008KT 10SM OVC007 M04/M05 A3021 RMK AO2
Loading
Personal Weather Stations






























Interactive Weather Map New forecast layout! Learn more

10-Day Weather Forecast

Advertisements
Track Severe Weather on mobile